createdAt,value
2022-10-20T00:05:01.689Z,24.30
2022-10-20T00:08:13.718Z,24.30
2022-10-20T00:11:25.750Z,24.30
2022-10-20T00:14:31.775Z,24.30
2022-10-20T00:17:43.804Z,24.30
2022-10-20T00:20:55.829Z,24.30
2022-10-20T00:24:07.858Z,24.30
2022-10-20T00:27:13.884Z,24.30
2022-10-20T00:30:25.913Z,24.30
2022-10-20T00:33:31.948Z,24.30
2022-10-20T00:36:47.371Z,24.30
2022-10-20T00:39:55.999Z,24.30
2022-10-20T00:43:14.031Z,24.20
2022-10-20T00:46:26.065Z,24.20
2022-10-20T00:49:56.104Z,24.20
2022-10-20T00:53:32.137Z,24.20
2022-10-20T00:57:05.048Z,24.20
2022-10-20T01:00:32.200Z,24.20
2022-10-20T01:04:05.004Z,24.20
2022-10-20T01:07:38.486Z,24.20
2022-10-20T01:11:23.171Z,24.20
2022-10-20T01:14:56.339Z,24.20
2022-10-20T01:18:29.236Z,24.20
2022-10-20T01:22:32.415Z,24.20
2022-10-20T01:26:11.302Z,24.20
2022-10-20T01:29:35.334Z,24.20
2022-10-20T03:11:51.241Z,24.10
2022-10-20T03:15:01.748Z,24.00
2022-10-20T03:18:07.771Z,24.00
2022-10-20T03:21:15.228Z,24.00
2022-10-20T03:24:25.826Z,24.00
2022-10-20T03:27:22.515Z,24.00
2022-10-20T03:30:16.952Z,24.00
2022-10-20T03:33:12.544Z,23.90
2022-10-20T03:36:03.380Z,23.90
2022-10-20T03:38:57.408Z,23.90
2022-10-20T03:41:58.633Z,23.90
2022-10-20T03:44:54.626Z,23.90
2022-10-20T03:47:48.654Z,23.90
2022-10-20T03:50:48.677Z,23.90
2022-10-20T03:53:42.701Z,23.90
2022-10-20T03:56:38.105Z,23.90
2022-10-20T03:59:34.797Z,23.90
2022-10-20T04:02:38.463Z,24.00
2022-10-20T04:05:33.649Z,24.00
2022-10-20T04:08:33.079Z,24.00
2022-10-20T04:11:26.251Z,23.90
2022-10-20T04:14:21.732Z,23.90
2022-10-20T04:17:18.900Z,24.00
2022-10-20T04:20:14.340Z,24.00
2022-10-20T04:22:59.002Z,24.00
2022-10-20T04:25:56.391Z,24.00
2022-10-20T04:28:50.415Z,24.00
2022-10-20T04:31:39.681Z,24.00
2022-10-20T04:34:32.471Z,24.00
2022-10-20T04:37:27.970Z,23.90
2022-10-20T04:40:21.990Z,24.00
2022-10-20T04:43:10.025Z,24.00
2022-10-20T04:46:00.699Z,24.00
2022-10-20T04:49:01.163Z,24.00
2022-10-20T04:52:01.145Z,24.00
2022-10-20T04:54:56.641Z,24.00
2022-10-20T04:57:55.242Z,24.00
2022-10-20T05:00:52.179Z,24.00
2022-10-20T05:03:37.287Z,24.00
2022-10-20T05:06:37.314Z,24.10
2022-10-20T05:09:34.262Z,24.10
2022-10-20T05:12:29.038Z,24.10
2022-10-20T05:15:10.224Z,24.10
2022-10-20T05:18:04.341Z,24.10
2022-10-20T05:21:08.411Z,24.10
2022-10-20T05:23:59.618Z,24.10
2022-10-20T05:26:52.428Z,24.10
2022-10-20T05:29:47.629Z,24.10
2022-10-20T05:32:35.845Z,24.10
2022-10-20T06:23:19.953Z,24.10
2022-10-20T06:26:16.980Z,24.10
2022-10-20T06:33:33.522Z,24.10
2022-10-20T10:03:24.907Z,25.20
2022-10-20T10:06:14.762Z,24.90
2022-10-20T10:09:00.304Z,24.80
2022-10-20T10:11:50.501Z,24.80
2022-10-20T10:14:56.836Z,24.80
2022-10-20T10:17:50.550Z,24.80
2022-10-20T10:20:50.916Z,24.70
2022-10-20T10:23:38.600Z,24.60
2022-10-20T10:26:53.573Z,24.70
2022-10-20T10:29:41.609Z,24.70
2022-10-20T10:32:24.769Z,24.60
2022-10-20T10:35:26.070Z,24.60
2022-10-20T10:38:09.035Z,24.60
2022-10-20T10:59:27.217Z,24.60
2022-10-20T12:54:48.626Z,25.10
2022-10-20T12:57:46.002Z,25.20
2022-10-20T13:01:03.853Z,25.10
2022-10-20T13:37:58.702Z,25.20
2022-10-20T14:02:05.606Z,25.20
2022-10-20T14:18:57.215Z,25.20
2022-10-20T14:21:57.457Z,25.20
2022-10-20T14:25:09.376Z,25.20
2022-10-20T14:28:02.733Z,25.20
2022-10-20T14:31:05.635Z,25.20
2022-10-20T14:33:47.278Z,25.20
2022-10-20T14:36:52.908Z,25.20
2022-10-20T14:40:03.725Z,25.20
2022-10-20T14:42:56.592Z,25.20
2022-10-20T14:46:21.558Z,25.20
2022-10-20T14:49:52.421Z,25.20
2022-10-20T14:53:20.700Z,25.20
2022-10-20T14:56:52.999Z,25.10
2022-10-20T14:59:59.748Z,25.20
2022-10-20T15:02:51.701Z,25.20
2022-10-20T15:05:51.725Z,25.10
2022-10-20T15:08:46.994Z,25.10
2022-10-20T15:11:46.448Z,25.10
2022-10-20T15:14:33.123Z,25.10
2022-10-20T15:17:57.833Z,25.10
2022-10-20T15:21:03.862Z,25.10
2022-10-20T15:24:11.057Z,25.10
2022-10-20T15:27:15.016Z,25.10
2022-10-20T15:30:11.110Z,25.10
2022-10-20T15:33:23.142Z,25.10
2022-10-20T15:36:27.995Z,25.10
2022-10-20T15:39:34.024Z,25.10
2022-10-20T15:42:46.056Z,25.10
2022-10-20T15:45:37.180Z,25.10
2022-10-20T15:48:40.104Z,25.10
2022-10-20T15:51:47.300Z,25.10
2022-10-20T15:54:52.498Z,25.10
2022-10-20T15:57:45.301Z,25.10
2022-10-20T16:00:52.790Z,25.10
2022-10-20T16:03:53.401Z,25.00
2022-10-20T16:07:04.265Z,25.00
2022-10-20T16:10:03.084Z,25.00
2022-10-20T16:13:15.453Z,25.00
2022-10-20T16:16:20.205Z,25.00
2022-10-20T16:19:22.377Z,25.00
2022-10-20T16:22:28.406Z,25.00
2022-10-20T16:25:35.587Z,24.90
2022-10-20T16:28:39.595Z,24.90
2022-10-20T16:31:33.620Z,24.90
2022-10-20T16:34:45.663Z,24.90
2022-10-20T16:37:47.687Z,24.90
2022-10-20T16:40:59.715Z,24.90
2022-10-20T16:44:15.747Z,24.90
2022-10-20T16:47:27.778Z,24.90
2022-10-20T16:50:34.645Z,24.90
2022-10-20T16:53:39.838Z,24.90
2022-10-20T16:56:25.231Z,24.90
2022-10-20T16:59:45.890Z,24.90
2022-10-20T17:02:52.754Z,24.80
2022-10-20T17:05:58.779Z,24.70
2022-10-20T17:09:05.992Z,24.70
2022-10-20T17:12:15.650Z,24.60
2022-10-20T17:15:22.039Z,24.50
2022-10-20T17:18:27.658Z,24.30
2022-10-20T17:21:33.786Z,24.30
2022-10-20T17:24:40.122Z,24.30
2022-10-20T17:27:36.117Z,24.10
2022-10-20T17:30:40.180Z,24.10
2022-10-20T17:33:36.176Z,24.20
2022-10-20T17:36:40.234Z,24.10
2022-10-20T17:39:36.233Z,24.10
2022-10-20T17:42:41.170Z,24.20
2022-10-20T17:46:09.889Z,24.20
2022-10-20T17:49:45.922Z,24.00
2022-10-20T17:53:15.952Z,24.10
2022-10-20T17:56:39.983Z,24.20
2022-10-20T18:00:14.399Z,24.30
2022-10-20T18:04:04.055Z,24.40
2022-10-20T18:07:34.087Z,24.40
2022-10-20T18:11:10.131Z,24.40
2022-10-20T18:14:13.668Z,24.50
2022-10-20T18:17:25.033Z,24.50
2022-10-20T18:20:36.651Z,24.50
2022-10-20T18:23:43.398Z,24.50
2022-10-20T18:26:48.710Z,24.50
2022-10-20T18:29:55.106Z,24.50
2022-10-20T18:33:00.762Z,24.60
2022-10-20T18:36:12.791Z,24.60
2022-10-20T18:39:18.816Z,24.60
2022-10-20T18:42:25.226Z,24.50
2022-10-20T18:45:30.871Z,24.60
2022-10-20T18:48:42.901Z,24.60
2022-10-20T18:51:54.932Z,24.60
2022-10-20T18:55:01.371Z,24.60
2022-10-20T18:58:25.403Z,24.60
2022-10-20T19:01:55.444Z,24.60
2022-10-20T19:05:22.631Z,24.60
2022-10-20T19:08:55.550Z,24.60
2022-10-20T19:12:19.548Z,24.60
2022-10-20T19:15:49.581Z,24.60
2022-10-20T19:19:13.613Z,24.60
2022-10-20T19:22:43.644Z,24.60
2022-10-20T19:26:13.678Z,24.60
2022-10-20T19:29:20.091Z,24.60
2022-10-20T19:32:28.868Z,24.60
2022-10-20T19:35:37.886Z,24.60
2022-10-20T19:38:44.318Z,24.60
2022-10-20T19:41:55.897Z,24.60
2022-10-20T19:45:07.923Z,24.60
2022-10-20T19:48:13.954Z,24.60
2022-10-20T19:51:31.978Z,24.60
2022-10-20T19:54:37.694Z,24.70
2022-10-20T19:57:43.718Z,24.60
2022-10-20T20:00:50.012Z,24.60
2022-10-20T20:03:53.128Z,24.60
2022-10-20T20:07:01.022Z,24.60
2022-10-20T20:10:08.079Z,24.60
2022-10-20T20:13:20.104Z,24.60
2022-10-20T20:16:23.238Z,24.60
2022-10-20T20:19:26.162Z,24.60
2022-10-20T20:22:29.288Z,24.60
2022-10-20T20:25:32.220Z,24.60
2022-10-20T20:28:44.252Z,24.60
2022-10-20T20:31:50.280Z,24.60
2022-10-20T20:34:56.359Z,24.60
2022-10-20T20:38:08.335Z,24.60
2022-10-20T20:41:21.233Z,24.60
2022-10-20T20:44:38.395Z,24.60
2022-10-20T20:47:50.424Z,24.60
2022-10-20T20:51:02.453Z,24.60
2022-10-20T20:54:09.343Z,24.60
2022-10-20T20:57:15.371Z,24.60
2022-10-20T21:00:29.614Z,24.60
2022-10-20T21:03:39.427Z,24.60
2022-10-20T21:07:01.714Z,24.60
2022-10-20T21:10:14.618Z,24.60
2022-10-20T21:13:20.679Z,24.60
2022-10-20T21:16:50.715Z,24.60
2022-10-20T21:20:02.742Z,24.60
2022-10-20T21:23:08.770Z,24.60
2022-10-20T21:26:38.811Z,24.60
2022-10-20T21:29:46.338Z,24.60
2022-10-20T21:33:02.889Z,24.60
2022-10-20T21:36:50.925Z,24.60
2022-10-20T21:40:02.953Z,24.60
2022-10-20T21:43:08.983Z,24.60
2022-10-20T21:46:36.035Z,24.60
2022-10-20T21:49:44.739Z,24.60
2022-10-20T21:52:48.077Z,24.60
2022-10-20T21:55:45.109Z,24.60
2022-10-20T21:58:44.834Z,24.60
2022-10-20T22:01:51.167Z,24.60
2022-10-20T22:04:56.883Z,24.60
2022-10-20T22:08:02.911Z,24.50
2022-10-20T22:11:02.938Z,24.50
2022-10-20T22:14:12.251Z,24.50
2022-10-20T22:17:22.104Z,24.50
2022-10-20T22:20:33.195Z,24.50
2022-10-20T22:23:40.159Z,24.50
2022-10-20T22:26:46.186Z,24.60
2022-10-20T22:29:54.061Z,24.60
2022-10-20T22:33:04.241Z,24.60
2022-10-20T22:36:16.268Z,24.60
2022-10-20T22:39:22.297Z,24.50
2022-10-20T22:42:30.477Z,24.50
2022-10-20T22:45:33.400Z,24.60
2022-10-20T22:48:40.407Z,24.50
2022-10-20T22:51:45.455Z,24.50
2022-10-20T22:54:46.421Z,24.50
2022-10-20T22:57:45.935Z,24.50
2022-10-20T23:00:45.546Z,24.50
2022-10-20T23:03:45.958Z,24.50
2022-10-20T23:06:48.719Z,24.50
2022-10-20T23:09:52.015Z,24.50
2022-10-20T23:12:48.723Z,24.50
2022-10-20T23:15:46.078Z,24.50
2022-10-20T23:18:42.771Z,24.50
2022-10-20T23:21:46.142Z,24.50
2022-10-20T23:24:42.820Z,24.50
2022-10-20T23:27:46.719Z,24.50
2022-10-20T23:30:58.751Z,24.50
2022-10-20T23:34:04.778Z,24.50
2022-10-20T23:37:16.800Z,24.50
2022-10-20T23:40:22.829Z,24.50
2022-10-20T23:46:46.380Z,24.50
2022-10-20T23:49:52.914Z,24.50
2022-10-20T23:53:22.440Z,24.50
2022-10-20T23:56:52.472Z,24.50
